METAR Data
IDs: Format: Raw Decoded Include TAF

Data at: 2213 UTC 24 Mar 2019

KPVW 242155Z AUTO 28004KT 10SM CLR 20/01 A3005 RMK AO2 T01990005
KPVW 242135Z AUTO 00000KT 10SM CLR 19/01 A3005 RMK AO2 T01880010
KPVW 242115Z AUTO 26003KT 10SM CLR 19/01 A3005 RMK AO2 T01890014
KPVW 242055Z AUTO 17005KT 10SM CLR 19/02 A3006 RMK AO2 T01940020
KPVW 242035Z AUTO 28004KT 10SM CLR 18/02 A3006 RMK AO2 T01800015
KPVW 242015Z AUTO 00000KT 10SM CLR 18/01 A3007 RMK AO2 T01750013
KPVW 241955Z AUTO 29004KT 10SM CLR 17/02 A3007 RMK AO2 T01680015
KPVW 241935Z AUTO 00000KT 10SM CLR 17/02 A3008 RMK AO2 T01670020
KPVW 241915Z AUTO 11004KT 10SM CLR 17/03 A3009 RMK AO2 T01680025
KPVW 241855Z AUTO 09005KT 10SM CLR 17/03 A3009 RMK AO2 T01650028
KPVW 241835Z AUTO 03004KT 10SM CLR 16/03 A3009 RMK AO2 T01620027
KPVW 241815Z AUTO 00000KT 10SM CLR 16/03 A3009 RMK AO2 T01560027
KPVW 241755Z AUTO 04004KT 10SM CLR 15/03 A3010 RMK AO2 T01460027 10147 20040
KPVW 241735Z AUTO 07006KT 10SM CLR 14/03 A3010 RMK AO2 T01430027
KPVW 241715Z AUTO 06007KT 10SM CLR 15/03 A3010 RMK AO2 T01450031
KPVW 241655Z AUTO 06007KT 10SM CLR 13/03 A3010 RMK AO2 T01340026
KPVW 241635Z AUTO 06008KT 10SM CLR 13/03 A3010 RMK AO2 T01270030
KPVW 241615Z AUTO 04006KT 10SM CLR 12/03 A3010 RMK AO2 T01220031
KPVW 241555Z AUTO 06008KT 10SM CLR 12/03 A3010 RMK AO2 T01150026
KPVW 241535Z AUTO 06009KT 10SM CLR 11/03 A3010 RMK AO2 T01100027
KPVW 241515Z AUTO 04007KT 10SM CLR 10/03 A3010 RMK AO2 T00980025
KPVW 241455Z AUTO 03008KT 10SM CLR 09/03 A3008 RMK AO2 T00890025
KPVW 241435Z AUTO 01011KT 10SM CLR 08/03 A3007 RMK AO2 T00790025
KPVW 241415Z AUTO 36007KT 10SM CLR 07/03 A3007 RMK AO2 T00690025
KPVW 241355Z AUTO 01009KT 10SM CLR 06/02 A3006 RMK AO2 T00570021
KPVW 241335Z AUTO 36010KT 10SM CLR 05/02 A3005 RMK AO2 T00500020
KPVW 241315Z AUTO 36011KT 10SM CLR 04/02 A3004 RMK AO2 T00420017
KPVW 241255Z AUTO 36008KT 10SM CLR 04/02 A3004 RMK AO2 T00400015
KPVW 241235Z AUTO 35009KT 10SM CLR 04/02 A3004 RMK AO2 T00420015
KPVW 241215Z AUTO 35009KT 10SM CLR 04/02 A3003 RMK AO2 T00420015
KPVW 241155Z AUTO 34011KT 10SM CLR 05/02 A3003 RMK AO2 T00460015 10084 20036
KPVW 241135Z AUTO 35010KT 10SM CLR 05/02 A3002 RMK AO2 T00500015
KPVW 241115Z AUTO 34008KT 10SM CLR 05/01 A3002 RMK AO2 T00510011
KPVW 241055Z AUTO 35011KT 10SM CLR 06/01 A3001 RMK AO2 T00580005
KPVW 241035Z AUTO 34012KT 10SM CLR 07/00 A3000 RMK AO2 T00661003
KPVW 241015Z AUTO 33012KT 10SM CLR 08/M02 A3000 RMK AO2 T00781020
KPVW 240955Z AUTO 32011KT 10SM CLR 07/M03 A3000 RMK AO2 T00721026
KPVW 240935Z AUTO 32009KT 10SM CLR 06/M02 A3000 RMK AO2 T00621025
KPVW 240915Z AUTO 31008KT 10SM CLR 06/M02 A3000 RMK AO2 T00571024
KPVW 240855Z AUTO 32005KT 10SM CLR 04/M03 A3000 RMK AO2 T00401029
KPVW 240835Z AUTO 28005KT 10SM CLR 04/M02 A3001 RMK AO2 T00391025
KPVW 240815Z AUTO 25006KT 10SM CLR 05/M03 A3000 RMK AO2 T00501030
KPVW 240755Z AUTO 28007KT 10SM CLR 05/M03 A3000 RMK AO2 T00501034
KPVW 240735Z AUTO 25004KT 10SM CLR 05/M03 A3000 RMK AO2 T00491029
KPVW 240715Z AUTO 24005KT 10SM CLR 06/M03 A2999 RMK AO2 T00551033
KPVW 240655Z AUTO 23006KT 10SM CLR 06/M03 A2999 RMK AO2 T00631032
KPVW 240635Z AUTO 24008KT 10SM CLR 06/M03 A3000 RMK AO2 T00631031
KPVW 240615Z AUTO 24006KT 10SM CLR 07/M03 A3000 RMK AO2 T00701029
KPVW 240555Z AUTO 25009KT 10SM CLR 08/M03 A3000 RMK AO2 T00761026 10195 20071 402210036
KPVW 240535Z AUTO 25007KT 10SM CLR 07/M02 A3000 RMK AO2 T00721022
KPVW 240515Z AUTO 25008KT 10SM CLR 09/M03 A2999 RMK AO2 T00891028
KPVW 240455Z AUTO 23009KT 10SM CLR 10/M03 A2999 RMK AO2 T00961031
KPVW 240435Z AUTO 22005KT 10SM CLR 10/M03 A2999 RMK AO2 T01001030
KPVW 240415Z AUTO 22009KT 10SM CLR 11/M03 A2999 RMK AO2 T01101032
KPVW 240355Z AUTO 21008KT 10SM CLR 11/M03 A2999 RMK AO2 T01101033
KPVW 240335Z AUTO 21007KT 10SM CLR 11/M03 A2998 RMK AO2 T01051032
KPVW 240315Z AUTO 22008KT 10SM CLR 12/M03 A2998 RMK AO2 T01151035
KPVW 240255Z AUTO 22010KT 10SM CLR 12/M03 A2997 RMK AO2 T01231032 TSNO
KPVW 240235Z AUTO 21007KT 10SM CLR 12/M03 A2997 RMK AO2 T01211031
KPVW 240215Z AUTO 20007KT 10SM CLR 12/M03 A2997 RMK AO2 T01221035 TSNO
KPVW 240155Z AUTO 21007KT 10SM CLR 14/M04 A2996 RMK AO2 T01371036
KPVW 240135Z AUTO 21008KT 10SM CLR 15/M04 A2995 RMK AO2 T01491037
KPVW 240115Z AUTO 21009KT 10SM CLR 17/M04 A2993 RMK AO2 T01651040
KPVW 240055Z AUTO 22011KT 10SM CLR 18/M04 A2993 RMK AO2 T01761042
KPVW 240035Z AUTO 22008KT 10SM CLR 18/M04 A2992 RMK AO2 T01811041
KPVW 240015Z AUTO 23009KT 10SM CLR 19/M04 A2992 RMK AO2 T01891045
KPVW 232355Z AUTO 23013KT 10SM CLR 20/M04 A2992 RMK AO2 T01951045 10221 20163
KPVW 232335Z AUTO 23014G20KT 10SM CLR 20/M05 A2991 RMK AO2 T02031047
KPVW 232315Z AUTO 25014G23KT 10SM CLR 22/M05 A2991 RMK AO2 T02151049
KPVW 232255Z AUTO 25016G24KT 10SM CLR 21/M05 A2992 RMK AO2 T02141049
KPVW 232235Z AUTO 26015G21KT 10SM CLR 21/M05 A2992 RMK AO2 T02141052
KPVW 232215Z AUTO 28021G24KT 10SM CLR 22/M06 A2992 RMK AO2 T02191058
KPVW 232155Z AUTO 27019G23KT 10SM CLR 21/M06 A2992 RMK AO2 T02141065
KPVW 232135Z AUTO 26019G23KT 10SM CLR 21/M06 A2993 RMK AO2 T02131056
KPVW 232115Z AUTO 27019G27KT 10SM CLR 21/M06 A2993 RMK AO2 T02051059
KPVW 232055Z AUTO 26017G24KT 10SM CLR 21/M05 A2994 RMK AO2 T02121054
KPVW 232035Z AUTO 27020G24KT 10SM CLR 21/M05 A2994 RMK AO2 LTG DSNT E T02061053
KPVW 232015Z AUTO 26017G24KT 10SM CLR 20/M04 A2995 RMK AO2 T02011044
KPVW 231955Z AUTO 26017G24KT 10SM CLR 20/M04 A2995 RMK AO2 T02011042
KPVW 231935Z AUTO 26018G22KT 10SM CLR 19/M04 A2996 RMK AO2 T01931040
KPVW 231915Z AUTO 26014G19KT 10SM CLR 19/M03 A2997 RMK AO2 T01871027
KPVW 231855Z AUTO 27017KT 10SM CLR 18/M02 A2997 RMK AO2 T01791025
KPVW 231835Z AUTO 25014G20KT 10SM CLR 18/M03 A2999 RMK AO2 T01761027
KPVW 231815Z AUTO 26011G18KT 10SM CLR 17/M03 A2999 RMK AO2 T01651035
KPVW 231755Z AUTO 28011G17KT 10SM CLR 16/M03 A3000 RMK AO2 T01631032 10165 20036
KPVW 231735Z AUTO 29012G16KT 10SM CLR 16/M02 A3000 RMK AO2 T01591024
KPVW 231715Z AUTO 28010G17KT 10SM CLR 15/M02 A3000 RMK AO2 T01531019
KPVW 231655Z AUTO 28012G18KT 10SM CLR 15/M01 A3001 RMK AO2 T01471007
KPVW 231635Z AUTO 28013G18KT 10SM CLR 14/M01 A3001 RMK AO2 LTG DSNT E T01401008
KPVW 231615Z AUTO 29015KT 10SM CLR 14/M01 A3001 RMK AO2 LTG DSNT E T01351006
KPVW 231555Z AUTO 29014KT 10SM CLR 13/M01 A3001 RMK AO2 LTG DSNT E T01311008
KPVW 231535Z AUTO 27015G20KT 10SM CLR 12/00 A3001 RMK AO2 T01241004
KPVW 231515Z AUTO 27015KT 10SM CLR 11/00 A3002 RMK AO2 LTG DSNT E T01130002
KPVW 231455Z AUTO 27013KT 10SM CLR 10/00 A3002 RMK AO2 LTG DSNT E T01020001
KPVW 231435Z AUTO 26013KT 10SM CLR 09/00 A3001 RMK AO2 LTG DSNT E T00890001
KPVW 231415Z AUTO 26010KT 10SM CLR 08/01 A3001 RMK AO2 LTG DSNT E T00760006
KPVW 231355Z AUTO 26009KT 10SM CLR 06/00 A3000 RMK AO2 T00580002
KPVW 231335Z AUTO 26008KT 10SM CLR 04/00 A3000 RMK AO2 T00440001
KPVW 231315Z AUTO 26007KT 10SM CLR 04/00 A2999 RMK AO2 T00360000
KPVW 231255Z AUTO 26009KT 10SM CLR 04/00 A2999 RMK AO2 T00420000
KPVW 231235Z AUTO 26011KT 10SM CLR 05/01 A2998 RMK AO2 T00450005
KPVW 231215Z AUTO 28010KT 10SM CLR 05/01 A2997 RMK AO2 T00460014
KPVW 231155Z AUTO 27009KT 10SM CLR 05/02 A2997 RMK AO2 T00500021 10122 20047
KPVW 231135Z AUTO 27008KT 10SM CLR 05/02 A2996 RMK AO2 T00480024
KPVW 231115Z AUTO 27008KT 10SM CLR 05/03 A2995 RMK AO2 T00520029
KPVW 231055Z AUTO 28007KT 10SM CLR 05/03 A2995 RMK AO2 T00500028
KPVW 231035Z AUTO 28006KT 10SM CLR 05/03 A2995 RMK AO2 T00510034
KPVW 231015Z AUTO 26005KT 7SM CLR 05/04 A2995 RMK AO2 T00540044